Time;durP1;ratioP1;P1;durP2;ratioP2;P2;SDS_P1;SDS_P2;PMS_P1;PMS_P2;Temp;Humidity;BMP_temperature;BMP_pressure;BME280_temperature;BME280_humidity;BME280_pressure;Samples;Min_cycle;Max_cycle;Signal;HPM_P1;HPM_P2
2022/06/02 00:00:18;;;;;;;0.40;0.40;;;14.90;1.00;;;;;;5087970;28;20643;-77
2022/06/02 00:02:57;;;;;;;0.40;0.40;;;15.00;1.00;;;;;;5088580;28;20209;-76
2022/06/02 00:05:58;;;;;;;0.40;0.40;;;15.00;1.00;;;;;;5088628;28;20174;-77
2022/06/02 00:08:38;;;;;;;0.40;0.40;;;15.00;1.00;;;;;;5088604;28;20178;-77
2022/06/02 00:11:13;;;;;;;0.40;0.40;;;15.00;1.00;;;;;;5087937;28;20201;-77
2022/06/02 00:13:42;;;;;;;0.40;0.40;;;14.90;1.00;;;;;;5088527;28;20205;-76
2022/06/02 00:16:16;;;;;;;0.40;0.40;;;14.90;1.00;;;;;;5087963;28;20215;-77
2022/06/02 00:18:54;;;;;;;0.40;0.40;;;14.80;1.00;;;;;;5088271;28;20258;-77
2022/06/02 00:21:42;;;;;;;0.40;0.40;;;14.80;1.00;;;;;;5087830;28;20192;-76
2022/06/02 00:24:31;;;;;;;0.40;0.40;;;14.70;1.00;;;;;;5088013;28;20171;-76
2022/06/02 00:27:15;;;;;;;0.30;0.30;;;14.80;1.00;;;;;;5088077;28;20639;-76
2022/06/02 00:30:13;;;;;;;0.40;0.40;;;14.80;1.00;;;;;;5087530;28;20180;-77
2022/06/02 00:32:53;;;;;;;0.30;0.30;;;14.70;1.00;;;;;;5088159;28;20193;-77
2022/06/02 00:35:50;;;;;;;0.30;0.30;;;14.70;1.00;;;;;;5087994;28;20538;-75
2022/06/02 00:38:23;;;;;;;0.43;0.43;;;14.80;1.00;;;;;;5084460;28;20181;-76
2022/06/02 00:40:48;;;;;;;0.50;0.50;;;14.80;1.00;;;;;;5087067;28;20178;-77
2022/06/02 00:43:29;;;;;;;0.40;0.40;;;14.90;1.00;;;;;;5087670;28;20328;-77
2022/06/02 00:46:14;;;;;;;0.40;0.40;;;15.00;1.00;;;;;;5076440;28;20178;-75
2022/06/02 00:48:52;;;;;;;0.40;0.40;;;15.00;1.00;;;;;;5074018;28;20174;-77
2022/06/02 00:51:37;;;;;;;0.40;0.40;;;15.00;1.00;;;;;;5073619;28;20186;-76
2022/06/02 00:57:31;;;;;;;0.30;0.30;;;14.90;1.00;;;;;;5074416;28;20339;-79
2022/06/02 01:00:06;;;;;;;0.40;0.40;;;15.00;1.00;;;;;;5074239;28;20228;-79
2022/06/02 01:03:00;;;;;;;0.50;0.50;;;14.90;1.00;;;;;;5074209;28;20217;-75
2022/06/02 01:05:54;;;;;;;0.33;0.33;;;14.90;1.00;;;;;;5074161;28;20191;-80
2022/06/02 01:08:48;;;;;;;0.40;0.40;;;14.90;1.00;;;;;;5076706;28;20596;-76
2022/06/02 01:11:34;;;;;;;0.30;0.30;;;14.80;1.00;;;;;;5074330;28;20274;-78
2022/06/02 01:14:30;;;;;;;0.37;0.37;;;14.90;1.00;;;;;;5075914;28;20237;-78
2022/06/02 01:17:10;;;;;;;0.40;0.40;;;14.90;1.00;;;;;;5074137;28;20177;-76
2022/06/02 01:20:05;;;;;;;0.30;0.30;;;14.90;1.00;;;;;;5073353;28;20179;-77
2022/06/02 01:22:46;;;;;;;0.30;0.30;;;15.00;1.00;;;;;;5060543;28;20230;-77
2022/06/02 01:25:37;;;;;;;0.50;0.50;;;15.00;1.00;;;;;;5075551;28;20185;-78
2022/06/02 01:28:16;;;;;;;0.40;0.40;;;15.00;1.00;;;;;;5076050;28;20249;-78
2022/06/02 01:30:53;;;;;;;0.30;0.30;;;14.90;1.00;;;;;;5076075;28;20174;-77
2022/06/02 01:33:40;;;;;;;0.37;0.37;;;14.90;1.00;;;;;;5076016;28;20292;-76
2022/06/02 01:36:22;;;;;;;0.40;0.40;;;14.90;1.00;;;;;;5074532;28;20198;-76
2022/06/02 01:39:22;;;;;;;0.30;0.30;;;14.80;1.00;;;;;;5074246;28;20178;-77
2022/06/02 01:42:11;;;;;;;0.30;0.30;;;14.80;1.00;;;;;;5070998;28;20226;-77
2022/06/02 01:45:01;;;;;;;0.40;0.40;;;14.70;1.00;;;;;;5073836;28;20197;-76
2022/06/02 01:47:42;;;;;;;0.40;0.40;;;14.70;1.00;;;;;;5073198;28;20186;-77
2022/06/02 01:50:41;;;;;;;0.40;0.40;;;14.70;1.00;;;;;;5072567;28;20228;-76
2022/06/02 01:53:22;;;;;;;0.30;0.30;;;14.60;1.00;;;;;;5072972;28;20770;-76
2022/06/02 01:55:57;;;;;;;0.40;0.40;;;14.50;1.00;;;;;;5072865;28;20174;-76
2022/06/02 01:58:46;;;;;;;0.37;0.37;;;14.40;1.00;;;;;;5072216;28;20170;-76
2022/06/02 02:01:42;;;;;;;0.40;0.40;;;14.30;1.00;;;;;;5072208;28;20667;-77
2022/06/02 02:04:26;;;;;;;0.40;0.40;;;14.20;1.00;;;;;;5072747;28;20197;-76
2022/06/02 02:07:11;;;;;;;0.40;0.40;;;14.00;1.00;;;;;;5072516;28;20190;-76
2022/06/02 02:10:02;;;;;;;0.50;0.50;;;14.00;1.00;;;;;;5071784;28;20612;-76
2022/06/02 02:12:57;;;;;;;0.40;0.40;;;13.90;1.00;;;;;;5072191;28;20805;-76
2022/06/02 02:15:44;;;;;;;0.40;0.40;;;13.90;1.00;;;;;;5068379;28;20191;-76
2022/06/02 02:18:43;;;;;;;0.47;0.47;;;13.80;1.00;;;;;;5071976;28;20707;-76
2022/06/02 02:21:35;;;;;;;0.30;0.30;;;13.80;1.00;;;;;;5065329;28;20651;-77
2022/06/02 02:24:07;;;;;;;0.40;0.40;;;13.80;1.00;;;;;;5052498;28;20195;-76
2022/06/02 02:26:59;;;;;;;0.30;0.30;;;13.70;1.00;;;;;;5052487;28;20216;-77
2022/06/02 02:29:46;;;;;;;0.40;0.40;;;13.70;1.00;;;;;;5034360;28;20183;-76
2022/06/02 02:32:32;;;;;;;0.40;0.40;;;13.60;1.00;;;;;;5052609;28;20630;-77
2022/06/02 02:35:04;;;;;;;0.40;0.40;;;13.60;1.00;;;;;;5052668;28;20191;-77
2022/06/02 02:37:50;;;;;;;0.40;0.40;;;13.60;1.00;;;;;;5052458;28;20652;-76
2022/06/02 02:40:37;;;;;;;0.50;0.50;;;13.60;1.00;;;;;;5051956;28;20693;-77
2022/06/02 02:43:16;;;;;;;0.40;0.40;;;13.60;1.00;;;;;;5052758;28;20211;-77
2022/06/02 02:46:05;;;;;;;0.30;0.30;;;13.60;1.00;;;;;;5053155;28;20678;-77
2022/06/02 02:48:58;;;;;;;0.30;0.30;;;13.60;1.00;;;;;;5052551;28;20171;-77
2022/06/02 02:51:42;;;;;;;0.40;0.40;;;13.50;1.00;;;;;;5052030;28;20207;-76
2022/06/02 02:54:14;;;;;;;0.40;0.40;;;13.60;1.00;;;;;;5051913;28;20286;-76
2022/06/02 02:56:59;;;;;;;0.40;0.40;;;13.60;1.00;;;;;;5051707;28;20187;-76
2022/06/02 02:59:57;;;;;;;0.40;0.40;;;13.60;9.60;;;;;;5051464;28;20253;-76
2022/06/02 03:02:44;;;;;;;0.40;0.40;;;13.60;37.50;;;;;;5051209;28;20746;-77
2022/06/02 03:05:56;;;;;;;0.40;0.40;;;13.60;15.20;;;;;;5051843;28;20206;-77
2022/06/02 03:08:27;;;;;;;0.50;0.50;;;13.60;4.50;;;;;;5051366;28;20535;-76
2022/06/02 03:10:57;;;;;;;0.40;0.40;;;13.60;12.30;;;;;;5051123;28;20175;-77
2022/06/02 03:13:40;;;;;;;0.40;0.40;;;13.60;1.00;;;;;;5051574;28;20211;-76
2022/06/02 03:16:09;;;;;;;0.40;0.40;;;13.60;1.00;;;;;;5051818;28;20184;-77
2022/06/02 03:19:01;;;;;;;0.40;0.40;;;13.60;1.00;;;;;;5051695;28;20171;-78
2022/06/02 03:21:40;;;;;;;0.47;0.47;;;13.60;1.00;;;;;;5051261;28;20292;-77
2022/06/02 03:24:20;;;;;;;0.30;0.30;;;13.60;1.00;;;;;;5051584;28;20182;-78
2022/06/02 03:27:07;;;;;;;0.40;0.40;;;13.70;1.00;;;;;;5051485;28;20186;-76
2022/06/02 03:29:55;;;;;;;0.40;0.40;;;13.70;1.00;;;;;;5050950;28;20238;-78
2022/06/02 03:32:33;;;;;;;0.40;0.40;;;13.70;1.00;;;;;;5051184;28;20336;-77
2022/06/02 03:35:13;;;;;;;0.43;0.43;;;13.70;1.00;;;;;;5051484;28;20194;-77
2022/06/02 03:37:49;;;;;;;0.40;0.40;;;13.80;1.00;;;;;;5051282;28;20213;-77
2022/06/02 03:40:24;;;;;;;0.40;0.40;;;13.80;1.00;;;;;;5050913;28;20715;-77
2022/06/02 03:43:15;;;;;;;0.40;0.40;;;13.80;1.00;;;;;;5051479;28;20529;-77
2022/06/02 03:45:49;;;;;;;0.30;0.30;;;13.80;17.50;;;;;;5051348;28;20217;-77
2022/06/02 03:48:36;;;;;;;0.40;0.40;;;13.70;99.90;;;;;;5051441;28;20171;-77
2022/06/02 03:51:32;;;;;;;0.40;0.40;;;13.60;99.90;;;;;;5051161;28;20272;-77
2022/06/02 03:54:30;;;;;;;0.40;0.40;;;13.50;1.00;;;;;;5051956;28;20314;-77
2022/06/02 03:57:32;;;;;;;0.30;0.30;;;13.50;1.00;;;;;;5052196;28;20175;-77
2022/06/02 04:00:18;;;;;;;0.40;0.40;;;13.50;1.00;;;;;;5051203;28;20244;-77
2022/06/02 04:02:55;;;;;;;0.40;0.40;;;13.60;1.00;;;;;;5051658;28;20199;-78
2022/06/02 04:05:32;;;;;;;0.40;0.40;;;13.60;1.00;;;;;;5054232;28;20178;-77
2022/06/02 04:08:08;;;;;;;0.40;0.40;;;13.60;1.00;;;;;;5069901;28;20250;-78
2022/06/02 04:10:58;;;;;;;0.40;0.40;;;13.60;1.00;;;;;;5070528;28;20497;-77
2022/06/02 04:13:49;;;;;;;0.40;0.40;;;13.70;1.00;;;;;;5071409;28;20613;-77
2022/06/02 04:16:33;;;;;;;0.40;0.40;;;13.80;1.00;;;;;;5051226;28;20179;-77
2022/06/02 04:22:32;;;;;;;0.30;0.30;;;13.90;99.90;;;;;;5054596;28;20541;-77
2022/06/02 04:25:14;;;;;;;0.50;0.50;;;14.10;15.80;;;;;;5061194;28;20179;-77
2022/06/02 04:27:50;;;;;;;0.50;0.50;;;14.30;1.00;;;;;;5074750;28;20256;-77
2022/06/02 04:30:34;;;;;;;0.33;0.33;;;14.40;1.00;;;;;;5074274;28;20166;-78
2022/06/02 04:33:24;;;;;;;0.40;0.40;;;14.40;1.00;;;;;;5074740;28;20229;-77
2022/06/02 04:36:14;;;;;;;0.40;0.40;;;14.50;1.00;;;;;;5074336;28;20175;-77
2022/06/02 04:38:57;;;;;;;0.50;0.50;;;14.40;1.00;;;;;;5073950;28;20598;-77
2022/06/02 04:41:55;;;;;;;0.40;0.40;;;14.30;1.00;;;;;;5069722;28;20621;-76
2022/06/02 04:44:49;;;;;;;0.40;0.40;;;14.30;1.00;;;;;;5054617;28;20240;-77
2022/06/02 04:47:49;;;;;;;0.40;0.40;;;14.30;1.00;;;;;;5054263;28;20266;-77
2022/06/02 04:50:29;;;;;;;0.40;0.40;;;14.30;30.00;;;;;;5045443;28;20665;-76
2022/06/02 04:53:19;;;;;;;0.40;0.40;;;14.20;99.90;;;;;;5055352;28;20230;-77
2022/06/02 04:56:00;;;;;;;0.37;0.37;;;14.20;1.00;;;;;;5055686;28;20972;-77
2022/06/02 04:58:25;;;;;;;0.30;0.30;;;14.30;99.90;;;;;;5055508;28;20584;-78
2022/06/02 05:01:12;;;;;;;0.37;0.37;;;14.20;1.00;;;;;;5055068;28;20278;-77
2022/06/02 05:03:54;;;;;;;0.40;0.40;;;14.20;1.00;;;;;;5056838;28;20183;-77
2022/06/02 05:06:40;;;;;;;0.30;0.30;;;14.30;99.90;;;;;;5073498;28;20552;-75
2022/06/02 05:09:36;;;;;;;0.40;0.40;;;14.50;1.00;;;;;;5053436;28;20199;-75
2022/06/02 05:12:25;;;;;;;0.30;0.30;;;14.80;99.90;;;;;;5053404;28;20195;-75
2022/06/02 05:15:04;;;;;;;0.40;0.40;;;14.90;99.90;;;;;;5031805;28;20261;-75
2022/06/02 05:18:14;;;;;;;0.40;0.40;;;15.00;1.00;;;;;;5053871;28;20179;-76
2022/06/02 05:21:00;;;;;;;0.50;0.50;;;15.10;1.00;;;;;;5012614;28;20220;-76
2022/06/02 05:23:54;;;;;;;0.30;0.30;;;15.10;1.00;;;;;;5026926;28;20513;-76
2022/06/02 05:27:00;;;;;;;0.40;0.40;;;15.10;1.00;;;;;;5047641;28;20705;-77
2022/06/02 05:30:25;;;;;;;0.40;0.40;;;15.10;1.00;;;;;;5052950;28;20306;-76
2022/06/02 05:33:14;;;;;;;0.30;0.30;;;15.30;1.00;;;;;;5030549;28;20739;-75
2022/06/02 05:36:11;;;;;;;0.40;0.40;;;15.30;1.00;;;;;;5052662;28;20663;-77
2022/06/02 05:39:01;;;;;;;0.47;0.47;;;15.60;1.00;;;;;;5071163;28;20179;-75
2022/06/02 05:41:33;;;;;;;0.47;0.47;;;15.80;1.00;;;;;;5072964;28;20671;-75
2022/06/02 05:44:02;;;;;;;0.40;0.40;;;15.80;1.00;;;;;;5073138;28;20174;-74
2022/06/02 05:46:50;;;;;;;0.40;0.40;;;15.70;1.00;;;;;;5072737;28;20867;-75
2022/06/02 05:49:40;;;;;;;0.50;0.50;;;15.60;1.00;;;;;;5072278;28;20174;-74
2022/06/02 05:52:42;;;;;;;0.40;0.40;;;15.60;1.00;;;;;;5071020;28;20206;-76
2022/06/02 05:55:29;;;;;;;0.50;0.50;;;15.70;1.00;;;;;;5052663;28;20195;-75
2022/06/02 05:58:06;;;;;;;0.40;0.40;;;15.50;1.00;;;;;;5052614;28;20186;-74
2022/06/02 06:01:02;;;;;;;0.40;0.40;;;15.60;1.00;;;;;;5052359;28;20541;-76
2022/06/02 06:03:45;;;;;;;0.40;0.40;;;15.70;1.00;;;;;;5052703;28;20186;-75
2022/06/02 06:06:28;;;;;;;0.43;0.43;;;15.80;1.00;;;;;;5052146;28;20175;-76
2022/06/02 06:09:13;;;;;;;0.40;0.40;;;15.80;1.00;;;;;;5060447;28;20178;-75
2022/06/02 06:12:09;;;;;;;0.50;0.50;;;16.00;1.00;;;;;;5081724;28;20624;-76
2022/06/02 06:14:43;;;;;;;0.40;0.40;;;16.00;1.00;;;;;;5081889;28;20207;-76
2022/06/02 06:17:37;;;;;;;0.50;0.50;;;16.00;1.00;;;;;;5081478;28;20173;-75
2022/06/02 06:20:07;;;;;;;0.40;0.40;;;16.10;1.00;;;;;;5059524;28;20182;-76
2022/06/02 06:22:54;;;;;;;0.33;0.33;;;16.10;1.00;;;;;;5082808;28;20201;-74
2022/06/02 06:25:54;;;;;;;0.30;0.30;;;16.20;1.00;;;;;;5074023;28;20171;-75
2022/06/02 06:28:23;;;;;;;0.50;0.50;;;16.30;1.00;;;;;;5037889;28;20228;-75
2022/06/02 06:31:10;;;;;;;0.30;0.30;;;16.50;1.00;;;;;;5060256;28;20175;-75
2022/06/02 06:33:46;;;;;;;0.40;0.40;;;16.40;1.00;;;;;;5070689;22;20762;-83
2022/06/02 06:36:38;;;;;;;0.47;0.47;;;16.50;1.00;;;;;;5056481;28;20656;-82
2022/06/02 06:39:14;;;;;;;0.30;0.30;;;16.30;1.00;;;;;;5058945;28;20198;-83
2022/06/02 06:42:10;;;;;;;0.30;0.30;;;16.60;1.00;;;;;;5067393;28;20198;-87
2022/06/02 06:44:44;;;;;;;0.40;0.40;;;16.80;1.00;;;;;;5076488;28;20194;-85
2022/06/02 06:47:22;;;;;;;0.30;0.30;;;16.80;1.00;;;;;;5080956;28;20552;-85
2022/06/02 06:50:09;;;;;;;0.30;0.30;;;16.70;1.00;;;;;;5077787;28;20495;-82
2022/06/02 06:52:50;;;;;;;0.30;0.30;;;16.60;1.00;;;;;;5078784;28;20198;-85
2022/06/02 06:56:10;;;;;;;0.30;0.30;;;16.50;1.00;;;;;;5078011;28;20261;-81
2022/06/02 06:58:57;;;;;;;0.30;0.30;;;16.50;1.00;;;;;;5000527;28;20673;-86
2022/06/02 07:01:36;;;;;;;0.43;0.43;;;16.60;1.00;;;;;;5073149;28;20646;-83
2022/06/02 07:04:05;;;;;;;0.30;0.30;;;16.70;1.00;;;;;;5078396;28;20174;-85
2022/06/02 07:06:33;;;;;;;0.30;0.30;;;16.90;1.00;;;;;;5076604;28;20179;-84
2022/06/02 07:09:17;;;;;;;0.40;0.40;;;16.90;1.00;;;;;;5079806;28;20559;-83
2022/06/02 07:14:55;;;;;;;0.40;0.40;;;17.00;1.00;;;;;;5087054;28;20216;-87
2022/06/02 07:17:21;;;;;;;0.40;0.40;;;17.10;1.00;;;;;;5085052;28;20239;-84
2022/06/02 07:20:04;;;;;;;0.40;0.40;;;17.30;1.00;;;;;;5082246;28;20182;-82
2022/06/02 07:22:51;;;;;;;0.30;0.30;;;17.50;1.00;;;;;;5076192;28;20659;-82
2022/06/02 07:25:42;;;;;;;0.30;0.30;;;17.70;1.00;;;;;;5053557;28;20171;-81
2022/06/02 07:28:34;;;;;;;0.40;0.40;;;18.00;1.00;;;;;;5053414;28;20225;-81
2022/06/02 07:31:18;;;;;;;0.40;0.40;;;18.30;1.00;;;;;;5054053;28;20171;-82
2022/06/02 07:34:15;;;;;;;0.30;0.30;;;18.40;1.00;;;;;;5051567;28;20210;-77
2022/06/02 07:37:19;;;;;;;0.30;0.30;;;18.50;1.00;;;;;;5051378;28;20179;-76
2022/06/02 07:39:53;;;;;;;0.40;0.40;;;18.60;1.00;;;;;;5050982;28;20205;-76
2022/06/02 07:42:54;;;;;;;0.30;0.30;;;18.40;1.00;;;;;;5051092;28;20198;-76
2022/06/02 07:45:31;;;;;;;0.30;0.30;;;18.80;1.00;;;;;;5052085;28;20205;-77
2022/06/02 07:48:22;;;;;;;0.40;0.40;;;18.80;1.00;;;;;;5050473;28;20559;-76
2022/06/02 07:51:11;;;;;;;0.30;0.30;;;19.00;1.00;;;;;;5052097;28;20175;-77
2022/06/02 07:54:06;;;;;;;0.30;0.30;;;19.70;1.00;;;;;;5052574;28;20667;-75
2022/06/02 07:57:14;;;;;;;0.30;0.30;;;20.60;1.00;;;;;;5054092;28;20190;-75
2022/06/02 08:00:03;;;;;;;0.30;0.30;;;20.90;1.00;;;;;;5024887;28;20501;-76
2022/06/02 08:02:44;;;;;;;0.30;0.30;;;21.10;1.00;;;;;;5054880;28;20203;-75
2022/06/02 08:05:23;;;;;;;0.30;0.30;;;21.20;1.00;;;;;;5054832;28;20560;-76
2022/06/02 08:07:48;;;;;;;0.30;0.30;;;21.10;1.00;;;;;;5055159;28;20191;-76
2022/06/02 08:10:30;;;;;;;0.30;0.30;;;21.10;1.00;;;;;;5054285;28;20687;-75
2022/06/02 08:13:34;;;;;;;0.37;0.37;;;21.10;1.00;;;;;;5054638;28;20278;-75
2022/06/02 08:16:15;;;;;;;0.30;0.30;;;21.30;1.00;;;;;;5054403;28;20733;-76
2022/06/02 08:18:48;;;;;;;0.30;0.30;;;21.70;1.00;;;;;;5054608;28;20179;-75
2022/06/02 08:21:36;;;;;;;0.30;0.30;;;21.60;1.00;;;;;;5054166;28;20198;-76
2022/06/02 08:24:16;;;;;;;0.30;0.30;;;21.90;1.00;;;;;;5054574;28;20588;-77
2022/06/02 08:26:52;;;;;;;0.30;0.30;;;22.20;1.00;;;;;;5054797;28;20179;-77
2022/06/02 08:29:42;;;;;;;0.30;0.30;;;22.60;1.00;;;;;;5053992;28;20175;-74
2022/06/02 08:32:07;;;;;;;0.30;0.30;;;22.40;1.00;;;;;;5054349;28;20279;-75
2022/06/02 08:34:53;;;;;;;0.30;0.30;;;22.10;1.00;;;;;;5054195;28;20297;-75
2022/06/02 08:37:32;;;;;;;0.30;0.30;;;22.40;1.00;;;;;;5054236;28;20623;-75
2022/06/02 08:40:32;;;;;;;0.30;0.30;;;22.80;1.00;;;;;;5053926;28;20643;-76
2022/06/02 08:43:25;;;;;;;0.33;0.33;;;22.90;1.00;;;;;;5054898;28;20195;-76
2022/06/02 08:46:09;;;;;;;0.30;0.30;;;23.20;1.00;;;;;;5054297;28;20196;-74
2022/06/02 08:48:59;;;;;;;0.30;0.30;;;23.30;1.00;;;;;;5054154;28;20621;-75
2022/06/02 08:51:36;;;;;;;0.40;0.40;;;23.30;1.00;;;;;;5053965;28;20668;-75
2022/06/02 08:54:20;;;;;;;0.30;0.30;;;23.30;1.00;;;;;;5054777;28;20578;-78
2022/06/02 08:57:07;;;;;;;0.30;0.30;;;23.50;1.00;;;;;;5054424;28;20174;-76
2022/06/02 09:00:09;;;;;;;0.30;0.30;;;23.40;1.00;;;;;;5071314;28;20206;-76
2022/06/02 09:03:04;;;;;;;0.37;0.37;;;23.80;1.00;;;;;;5071325;28;20209;-77
2022/06/02 09:05:48;;;;;;;0.30;0.30;;;23.90;1.00;;;;;;5044113;28;20278;-76
2022/06/02 09:08:26;;;;;;;0.20;0.20;;;24.00;1.00;;;;;;5074511;28;20185;-76
2022/06/02 09:11:15;;;;;;;0.37;0.37;;;23.90;1.00;;;;;;5074629;28;20192;-76
2022/06/02 09:13:59;;;;;;;0.30;0.30;;;23.90;1.00;;;;;;5076163;28;20210;-77
2022/06/02 09:16:36;;;;;;;0.40;0.40;;;24.20;1.00;;;;;;5075735;28;20196;-76
2022/06/02 09:19:33;;;;;;;0.30;0.30;;;24.30;1.00;;;;;;5073657;28;20166;-76
2022/06/02 09:22:20;;;;;;;0.30;0.30;;;24.60;1.00;;;;;;5074246;28;20279;-76
2022/06/02 09:25:18;;;;;;;0.27;0.27;;;25.00;1.00;;;;;;5073285;28;20263;-76
2022/06/02 09:28:18;;;;;;;0.30;0.30;;;25.10;1.00;;;;;;5074771;28;20201;-78
2022/06/02 09:30:51;;;;;;;0.30;0.30;;;25.00;1.00;;;;;;5070708;28;20269;-77
2022/06/02 09:33:43;;;;;;;0.37;0.37;;;24.80;1.00;;;;;;5073123;28;20203;-76
2022/06/02 09:36:42;;;;;;;0.30;0.30;;;24.90;1.00;;;;;;5071489;28;20175;-77
2022/06/02 09:39:26;;;;;;;0.40;0.40;;;24.80;1.00;;;;;;5072247;28;20265;-77
2022/06/02 09:42:20;;;;;;;0.33;0.33;;;24.60;1.00;;;;;;5072132;28;20206;-76
2022/06/02 09:45:04;;;;;;;0.20;0.20;;;24.70;1.00;;;;;;5073251;28;20170;-78
2022/06/02 09:47:58;;;;;;;0.30;0.30;;;24.70;1.00;;;;;;5065672;28;20543;-75
2022/06/02 09:50:43;;;;;;;0.30;0.30;;;24.80;1.00;;;;;;5060292;28;20171;-77
2022/06/02 09:53:15;;;;;;;0.33;0.33;;;25.10;1.00;;;;;;5070995;28;20199;-75
2022/06/02 09:56:05;;;;;;;0.30;0.30;;;25.10;1.00;;;;;;5071192;28;20341;-76
2022/06/02 09:58:48;;;;;;;0.30;0.30;;;25.00;1.00;;;;;;5070618;28;20201;-76
2022/06/02 10:01:42;;;;;;;0.40;0.40;;;24.80;1.00;;;;;;5070690;28;20610;-78
2022/06/02 10:04:30;;;;;;;0.30;0.30;;;25.00;1.00;;;;;;5071208;28;20220;-73
2022/06/02 10:07:18;;;;;;;0.43;0.43;;;25.30;1.00;;;;;;5068190;28;20178;-76
2022/06/02 10:10:09;;;;;;;0.30;0.30;;;25.20;1.00;;;;;;5063121;28;20189;-76
2022/06/02 10:12:59;;;;;;;0.33;0.33;;;25.30;1.00;;;;;;5070699;28;20202;-76
2022/06/02 10:15:39;;;;;;;0.40;0.40;;;25.70;1.00;;;;;;5067026;28;20183;-77
2022/06/02 10:18:24;;;;;;;0.33;0.33;;;25.30;1.00;;;;;;5064530;28;20173;-77
2022/06/02 10:21:13;;;;;;;0.30;0.30;;;25.20;1.00;;;;;;5067788;28;20217;-75
2022/06/02 10:24:03;;;;;;;0.30;0.30;;;24.80;1.00;;;;;;5065428;28;20190;-77
2022/06/02 10:26:32;;;;;;;0.20;0.20;;;25.00;1.00;;;;;;5071875;28;20206;-78
2022/06/02 10:28:57;;;;;;;0.30;0.30;;;24.80;1.00;;;;;;5071974;28;20194;-78
2022/06/02 10:31:42;;;;;;;0.30;0.30;;;24.40;1.00;;;;;;5072598;28;20191;-76
2022/06/02 10:34:16;;;;;;;0.30;0.30;;;24.80;1.00;;;;;;5052447;28;20214;-76
2022/06/02 10:37:03;;;;;;;0.37;0.37;;;24.60;1.00;;;;;;5070149;28;20170;-75
2022/06/02 10:39:54;;;;;;;0.30;0.30;;;24.40;1.00;;;;;;5069616;28;20623;-74
2022/06/02 10:42:29;;;;;;;0.30;0.30;;;25.20;1.00;;;;;;5053636;28;20575;-75
2022/06/02 10:45:18;;;;;;;0.30;0.30;;;25.60;1.00;;;;;;5071764;28;20629;-75
2022/06/02 10:48:05;;;;;;;0.30;0.30;;;26.10;1.00;;;;;;5068543;28;20269;-76
2022/06/02 10:50:42;;;;;;;0.37;0.37;;;26.30;1.00;;;;;;5072441;28;20248;-77
2022/06/02 10:53:45;;;;;;;0.30;0.30;;;26.50;1.00;;;;;;5071950;28;20662;-77
2022/06/02 10:56:11;;;;;;;0.40;0.40;;;26.70;1.00;;;;;;5073963;28;20186;-76
2022/06/02 10:59:14;;;;;;;0.30;0.30;;;27.10;1.00;;;;;;5072187;28;20220;-77
2022/06/02 11:02:41;;;;;;;0.30;0.30;;;27.50;1.00;;;;;;5071529;28;20228;-76
2022/06/02 11:05:21;;;;;;;0.40;0.40;;;27.70;1.00;;;;;;5006307;28;20723;-75
2022/06/02 11:08:36;;;;;;;0.30;0.30;;;27.90;1.00;;;;;;5071927;28;20182;-77
2022/06/02 11:11:38;;;;;;;0.30;0.30;;;27.80;1.00;;;;;;5070252;28;20206;-77
2022/06/02 11:14:26;;;;;;;0.40;0.40;;;28.20;1.00;;;;;;5071188;28;20217;-78
2022/06/02 11:17:29;;;;;;;0.40;0.40;;;27.60;1.00;;;;;;5070960;28;20659;-77
2022/06/02 11:20:28;;;;;;;0.23;0.23;;;27.30;1.00;;;;;;5070808;28;20178;-76
2022/06/02 11:23:23;;;;;;;0.30;0.30;;;27.10;1.00;;;;;;5071276;28;20571;-76
2022/06/02 11:26:22;;;;;;;0.30;0.30;;;26.90;1.00;;;;;;5071334;28;20182;-77
2022/06/02 11:29:14;;;;;;;0.30;0.30;;;26.90;1.00;;;;;;5070932;28;20170;-77
2022/06/02 11:31:56;;;;;;;0.40;0.40;;;26.70;1.00;;;;;;5041919;28;20206;-77
2022/06/02 11:35:00;;;;;;;0.40;0.40;;;26.60;1.00;;;;;;5071095;28;20802;-76
2022/06/02 11:37:56;;;;;;;0.30;0.30;;;26.80;1.00;;;;;;5071399;28;20260;-77
2022/06/02 11:41:06;;;;;;;0.30;0.30;;;26.70;1.00;;;;;;5070780;28;20198;-77
2022/06/02 11:44:04;;;;;;;0.40;0.40;;;26.80;1.00;;;;;;5071388;28;20174;-76
2022/06/02 11:46:48;;;;;;;0.30;0.30;;;26.00;1.00;;;;;;5070981;28;20179;-76
2022/06/02 11:49:33;;;;;;;0.40;0.40;;;25.60;1.00;;;;;;5070738;28;20229;-76
2022/06/02 11:52:26;;;;;;;0.30;0.30;;;25.70;1.00;;;;;;5071102;28;20221;-76
2022/06/02 11:54:59;;;;;;;0.30;0.30;;;26.10;1.00;;;;;;5070421;28;20210;-75
2022/06/02 11:57:46;;;;;;;0.40;0.40;;;26.60;1.00;;;;;;5071157;28;20198;-75
2022/06/02 12:00:49;;;;;;;0.30;0.30;;;26.90;1.00;;;;;;5070508;28;20179;-75
2022/06/02 12:03:48;;;;;;;0.40;0.40;;;26.80;1.00;;;;;;5071173;28;20169;-74
2022/06/02 12:06:38;;;;;;;0.37;0.37;;;26.70;1.00;;;;;;5070943;28;20184;-75
2022/06/02 12:09:42;;;;;;;0.30;0.30;;;26.60;1.00;;;;;;5070115;28;20194;-75
2022/06/02 12:12:20;;;;;;;0.30;0.30;;;26.60;1.00;;;;;;5050545;28;20201;-75
2022/06/02 12:15:18;;;;;;;0.40;0.40;;;26.90;1.00;;;;;;5050807;28;20675;-75
2022/06/02 12:18:04;;;;;;;0.40;0.40;;;27.00;1.00;;;;;;5038818;28;20183;-75
2022/06/02 12:21:06;;;;;;;0.40;0.40;;;26.80;1.00;;;;;;5050430;28;20175;-75
2022/06/02 12:24:01;;;;;;;0.40;0.40;;;26.20;1.00;;;;;;5050680;28;20175;-75
2022/06/02 12:27:07;;;;;;;0.40;0.40;;;26.10;1.00;;;;;;5050984;28;20182;-76
2022/06/02 12:30:01;;;;;;;0.30;0.30;;;26.10;1.00;;;;;;5050346;28;20446;-76
2022/06/02 12:32:57;;;;;;;0.30;0.30;;;25.90;1.00;;;;;;5060602;28;20466;-77
2022/06/02 12:35:41;;;;;;;0.40;0.40;;;25.90;1.00;;;;;;5127704;22;20233;-78
2022/06/02 12:38:29;;;;;;;0.23;0.23;;;26.10;1.00;;;;;;5100085;28;20231;-78
2022/06/02 12:41:19;;;;;;;0.27;0.27;;;26.00;1.00;;;;;;5089518;28;20635;-78
2022/06/02 12:44:18;;;;;;;0.40;0.40;;;25.90;1.00;;;;;;5084419;28;20245;-78
2022/06/02 12:47:04;;;;;;;0.30;0.30;;;26.30;1.00;;;;;;5098848;28;20189;-80
2022/06/02 12:49:48;;;;;;;0.40;0.40;;;26.50;1.00;;;;;;5088635;28;20186;-76
2022/06/02 12:52:27;;;;;;;0.43;0.43;;;27.00;1.00;;;;;;5083626;28;20194;-76
2022/06/02 12:55:19;;;;;;;0.30;0.30;;;27.30;1.00;;;;;;5094183;28;20209;-77
2022/06/02 12:58:19;;;;;;;0.40;0.40;;;27.60;1.00;;;;;;5076713;28;20262;-76
2022/06/02 13:01:12;;;;;;;0.40;0.40;;;27.90;1.00;;;;;;5076079;28;20192;-77
2022/06/02 13:04:11;;;;;;;0.50;0.50;;;28.10;1.00;;;;;;5080715;28;20258;-76
2022/06/02 13:07:06;;;;;;;0.43;0.43;;;28.20;1.00;;;;;;5076445;28;20185;-76
2022/06/02 13:09:54;;;;;;;0.40;0.40;;;28.00;1.00;;;;;;5094021;28;20203;-77
2022/06/02 13:12:55;;;;;;;0.30;0.30;;;27.80;1.00;;;;;;5095815;28;20190;-77
2022/06/02 13:15:56;;;;;;;0.40;0.40;;;27.50;1.00;;;;;;5095971;28;20248;-78
2022/06/02 13:18:43;;;;;;;0.50;0.50;;;27.30;1.00;;;;;;5096151;28;20183;-76
2022/06/02 13:21:36;;;;;;;0.50;0.50;;;27.30;1.00;;;;;;5093517;28;20655;-75
2022/06/02 13:24:22;;;;;;;0.40;0.40;;;26.90;1.00;;;;;;5094261;28;20173;-76
2022/06/02 13:26:54;;;;;;;0.30;0.30;;;26.50;1.00;;;;;;5093977;28;20692;-75
2022/06/02 13:30:02;;;;;;;0.30;0.30;;;26.30;1.00;;;;;;5093578;28;20182;-75
2022/06/02 13:33:02;;;;;;;0.30;0.30;;;25.90;1.00;;;;;;5094007;28;20220;-75
2022/06/02 13:36:03;;;;;;;0.40;0.40;;;25.40;1.00;;;;;;5093597;28;20654;-75
2022/06/02 13:38:54;;;;;;;0.30;0.30;;;25.10;1.00;;;;;;5093626;28;20206;-75
2022/06/02 13:41:22;;;;;;;0.30;0.30;;;24.80;1.00;;;;;;5093643;28;20193;-76
2022/06/02 13:44:02;;;;;;;0.30;0.30;;;24.80;1.00;;;;;;5093622;28;20689;-76
2022/06/02 13:47:04;;;;;;;0.20;0.20;;;25.00;1.00;;;;;;5093466;28;20173;-76
2022/06/02 13:49:41;;;;;;;0.30;0.30;;;25.20;1.00;;;;;;5030943;28;20190;-76
2022/06/02 13:52:41;;;;;;;0.30;0.30;;;25.30;1.00;;;;;;5053297;28;20195;-75
2022/06/02 13:58:52;;;;;;;0.30;0.30;;;24.90;1.00;;;;;;5053287;28;20705;-76
2022/06/02 14:01:55;;;;;;;0.30;0.30;;;24.70;1.00;;;;;;5052793;28;20295;-75
2022/06/02 14:04:41;;;;;;;0.40;0.40;;;24.50;1.00;;;;;;5053096;28;20674;-75
2022/06/02 14:07:29;;;;;;;0.23;0.23;;;24.50;1.00;;;;;;5053090;28;20173;-75
2022/06/02 14:10:22;;;;;;;0.40;0.40;;;24.60;1.00;;;;;;5052014;28;20179;-74
2022/06/02 14:13:19;;;;;;;0.47;0.47;;;25.10;1.00;;;;;;5052637;28;20205;-75
2022/06/02 14:16:09;;;;;;;0.30;0.30;;;25.50;1.00;;;;;;5052703;28;20267;-75
2022/06/02 14:19:11;;;;;;;0.33;0.33;;;25.90;1.00;;;;;;5053063;28;20175;-74
2022/06/02 14:21:57;;;;;;;0.37;0.37;;;25.90;1.00;;;;;;5052470;28;20666;-74
2022/06/02 14:24:23;;;;;;;0.50;0.50;;;25.90;1.00;;;;;;5052392;28;20171;-74
2022/06/02 14:27:09;;;;;;;0.40;0.40;;;25.50;1.00;;;;;;5052813;28;20178;-75
2022/06/02 14:29:52;;;;;;;0.30;0.30;;;25.20;1.00;;;;;;5052064;28;20174;-74
2022/06/02 14:32:34;;;;;;;0.30;0.30;;;25.00;1.00;;;;;;5052255;28;20222;-75
2022/06/02 14:35:06;;;;;;;0.30;0.30;;;24.80;1.00;;;;;;5052204;28;20594;-74
2022/06/02 14:37:46;;;;;;;0.30;0.30;;;24.60;1.00;;;;;;5065385;28;20167;-74
2022/06/02 14:40:26;;;;;;;0.20;0.20;;;24.40;1.00;;;;;;5071708;28;20214;-75
2022/06/02 14:43:10;;;;;;;0.30;0.30;;;24.40;1.00;;;;;;5072043;28;20224;-75
2022/06/02 14:45:57;;;;;;;0.20;0.20;;;24.40;1.00;;;;;;5072388;28;20162;-74
2022/06/02 14:48:49;;;;;;;0.30;0.30;;;24.40;1.00;;;;;;5072140;28;20179;-74
2022/06/02 14:51:32;;;;;;;0.23;0.23;;;24.40;1.00;;;;;;5071723;28;20269;-75
2022/06/02 14:54:18;;;;;;;0.33;0.33;;;24.30;1.00;;;;;;5067845;28;20263;-76